createdAt,value
2019-02-28T00:00:54.950Z,6.20
2019-02-28T00:03:26.201Z,6.20
2019-02-28T00:05:56.272Z,6.20
2019-02-28T00:08:25.695Z,6.20
2019-02-28T00:10:55.041Z,6.20
2019-02-28T00:13:24.366Z,6.10
2019-02-28T00:15:53.716Z,5.90
2019-02-28T00:18:23.047Z,5.80
2019-02-28T00:20:52.400Z,5.90
2019-02-28T00:23:22.086Z,5.80
2019-02-28T00:25:52.150Z,5.70
2019-02-28T00:28:23.088Z,5.60
2019-02-28T00:30:52.513Z,5.50
2019-02-28T00:33:21.850Z,5.40
2019-02-28T00:35:51.200Z,5.40
2019-02-28T00:38:20.531Z,5.40
2019-02-28T00:40:49.875Z,5.50
2019-02-28T00:43:19.207Z,5.50
2019-02-28T00:45:48.526Z,5.40
2019-02-28T00:48:18.302Z,5.50
2019-02-28T00:50:48.891Z,5.50
2019-02-28T00:53:18.237Z,5.50
2019-02-28T00:55:47.547Z,5.50
2019-02-28T00:58:16.882Z,5.50
2019-02-28T01:00:46.243Z,5.50
2019-02-28T01:03:15.676Z,5.50
2019-02-28T01:05:45.059Z,5.50
2019-02-28T01:08:14.396Z,5.40
2019-02-28T01:10:44.255Z,5.40
2019-02-28T01:13:13.612Z,5.40
2019-02-28T01:15:45.100Z,5.40
2019-02-28T01:18:13.957Z,5.40
2019-02-28T01:20:43.292Z,5.40
2019-02-28T01:23:12.644Z,5.40
2019-02-28T01:25:41.973Z,5.30
2019-02-28T01:28:11.311Z,5.10
2019-02-28T01:30:41.226Z,5.20
2019-02-28T01:33:10.755Z,5.10
2019-02-28T01:35:40.899Z,5.00
2019-02-28T01:38:10.880Z,5.00
2019-02-28T01:40:40.225Z,5.00
2019-02-28T01:43:09.539Z,5.00
2019-02-28T01:45:43.411Z,5.00
2019-02-28T01:48:09.912Z,5.00
2019-02-28T01:50:39.256Z,5.10
2019-02-28T01:53:08.617Z,5.10
2019-02-28T01:55:38.018Z,5.10
2019-02-28T01:58:07.360Z,5.10
2019-02-28T02:00:36.728Z,5.10
2019-02-28T02:03:06.049Z,5.10
2019-02-28T02:05:35.408Z,5.10
2019-02-28T02:08:07.267Z,5.00
2019-02-28T02:10:35.784Z,5.00
2019-02-28T02:13:05.199Z,4.90
2019-02-28T02:15:34.551Z,4.90
2019-02-28T02:18:06.414Z,4.90
2019-02-28T02:20:34.964Z,4.90
2019-02-28T02:23:04.287Z,4.90
2019-02-28T02:25:36.986Z,5.00
2019-02-28T02:28:04.659Z,5.00
2019-02-28T02:30:34.019Z,5.00
2019-02-28T02:33:03.425Z,4.90
2019-02-28T02:35:32.955Z,5.00
2019-02-28T02:38:03.598Z,4.90
2019-02-28T02:40:33.309Z,4.90
2019-02-28T02:43:02.661Z,4.90
2019-02-28T02:45:31.990Z,4.90
2019-02-28T02:48:05.267Z,4.80
2019-02-28T02:50:35.754Z,4.80
2019-02-28T02:53:05.576Z,4.80
2019-02-28T02:55:35.564Z,4.80
2019-02-28T02:58:06.391Z,4.70
2019-02-28T03:00:35.775Z,4.70
2019-02-28T03:03:06.056Z,4.70
2019-02-28T03:05:36.798Z,4.80
2019-02-28T03:08:06.336Z,4.70
2019-02-28T03:10:35.667Z,4.60
2019-02-28T03:13:06.246Z,4.60
2019-02-28T03:15:35.897Z,4.60
2019-02-28T03:18:05.223Z,4.50
2019-02-28T03:20:35.632Z,4.60
2019-02-28T03:23:05.018Z,4.70
2019-02-28T03:25:34.375Z,4.70
2019-02-28T03:28:03.703Z,4.70
2019-02-28T03:30:33.867Z,4.70
2019-02-28T03:33:03.552Z,4.70
2019-02-28T03:35:41.487Z,4.70
2019-02-28T03:38:10.559Z,4.70
2019-02-28T03:40:39.909Z,4.70
2019-02-28T03:43:07.081Z,4.60
2019-02-28T03:45:36.546Z,4.60
2019-02-28T03:48:05.931Z,4.50
2019-02-28T03:50:35.251Z,4.60
2019-02-28T03:53:04.669Z,4.50
2019-02-28T03:55:40.297Z,4.50
2019-02-28T03:58:05.819Z,4.50
2019-02-28T04:00:35.383Z,4.50
2019-02-28T04:03:05.120Z,4.50
2019-02-28T04:05:34.460Z,4.40
2019-02-28T04:08:03.795Z,4.40
2019-02-28T04:10:33.115Z,4.40
2019-02-28T04:13:02.460Z,4.40
2019-02-28T04:15:31.848Z,4.40
2019-02-28T04:18:07.081Z,4.30
2019-02-28T04:20:36.373Z,4.30
2019-02-28T04:23:03.262Z,4.20
2019-02-28T04:25:32.579Z,4.20
2019-02-28T04:28:01.929Z,4.20
2019-02-28T04:30:32.969Z,4.10
2019-02-28T04:33:02.567Z,4.10
2019-02-28T04:35:33.043Z,4.10
2019-02-28T04:38:02.383Z,4.10
2019-02-28T04:40:31.711Z,4.10
2019-02-28T04:43:01.052Z,4.00
2019-02-28T04:45:30.371Z,4.00
2019-02-28T04:47:59.751Z,4.00
2019-02-28T04:50:32.052Z,4.00
2019-02-28T04:53:00.107Z,4.00
2019-02-28T04:55:30.593Z,3.90
2019-02-28T04:58:00.140Z,3.90
2019-02-28T05:00:29.479Z,3.80
2019-02-28T05:02:58.805Z,3.80
2019-02-28T05:05:28.139Z,3.70
2019-02-28T05:07:57.467Z,3.70
2019-02-28T05:10:26.804Z,3.70
2019-02-28T05:12:56.132Z,3.60
2019-02-28T05:15:26.536Z,3.50
2019-02-28T05:17:56.802Z,3.40
2019-02-28T05:20:26.278Z,3.50
2019-02-28T05:22:55.607Z,3.40
2019-02-28T05:25:24.939Z,3.40
2019-02-28T05:27:55.236Z,3.40
2019-02-28T05:30:24.566Z,3.40
2019-02-28T05:32:53.894Z,3.30
2019-02-28T05:35:26.535Z,3.40
2019-02-28T05:37:54.250Z,3.40
2019-02-28T05:40:23.591Z,3.40
2019-02-28T05:42:57.959Z,3.40
2019-02-28T05:45:23.956Z,3.40
2019-02-28T05:47:53.290Z,3.40
2019-02-28T05:50:22.665Z,3.40
2019-02-28T05:52:51.986Z,3.40
2019-02-28T05:55:24.637Z,3.40
2019-02-28T05:57:52.362Z,3.40
2019-02-28T06:00:23.407Z,3.40
2019-02-28T06:02:54.400Z,3.30
2019-02-28T06:05:23.779Z,3.20
2019-02-28T06:07:53.102Z,3.20
2019-02-28T06:10:24.654Z,3.20
2019-02-28T06:12:53.452Z,3.40
2019-02-28T06:15:22.795Z,3.50
2019-02-28T06:17:54.666Z,3.70
2019-02-28T06:20:23.166Z,3.80
2019-02-28T06:22:52.511Z,3.80
2019-02-28T06:25:24.931Z,3.90
2019-02-28T06:27:52.901Z,3.90
2019-02-28T06:30:22.283Z,4.00
2019-02-28T06:32:51.616Z,4.10
2019-02-28T06:35:20.991Z,4.30
2019-02-28T06:37:50.341Z,4.30
2019-02-28T06:40:19.789Z,4.40
2019-02-28T06:42:49.157Z,4.50
2019-02-28T06:45:20.652Z,4.60
2019-02-28T06:47:50.223Z,4.80
2019-02-28T06:50:19.765Z,4.90
2019-02-28T06:52:50.063Z,5.00
2019-02-28T06:55:21.039Z,5.10
2019-02-28T06:57:50.379Z,5.20
2019-02-28T07:00:19.939Z,5.30
2019-02-28T07:02:50.125Z,5.30
2019-02-28T07:05:24.625Z,5.30
2019-02-28T07:07:50.818Z,5.30
2019-02-28T07:10:20.148Z,5.40
2019-02-28T07:12:50.555Z,5.40
2019-02-28T07:15:23.347Z,5.50
2019-02-28T07:17:50.918Z,5.50
2019-02-28T07:20:20.408Z,5.50
2019-02-28T07:22:54.612Z,5.50
2019-02-28T07:25:21.146Z,5.60
2019-02-28T07:27:50.483Z,5.60
2019-02-28T07:30:20.647Z,5.60
2019-02-28T07:32:50.955Z,5.70
2019-02-28T07:35:20.282Z,5.70
2019-02-28T07:37:54.377Z,5.70
2019-02-28T07:40:21.916Z,5.70
2019-02-28T07:42:51.270Z,5.80
2019-02-28T07:45:20.597Z,5.80
2019-02-28T07:47:52.663Z,5.80
2019-02-28T07:50:20.988Z,5.80
2019-02-28T07:52:50.342Z,5.90
2019-02-28T07:55:20.972Z,5.90
2019-02-28T07:57:52.672Z,5.90
2019-02-28T08:00:22.567Z,6.00
2019-02-28T08:02:51.908Z,6.10
2019-02-28T08:05:21.343Z,6.10
2019-02-28T08:07:52.466Z,6.10
2019-02-28T08:10:26.851Z,6.20
2019-02-28T08:12:56.199Z,6.30
2019-02-28T08:15:26.663Z,6.30
2019-02-28T08:17:56.002Z,6.40
2019-02-28T08:20:25.363Z,6.40
2019-02-28T08:22:56.802Z,6.40
2019-02-28T08:25:25.855Z,6.40
2019-02-28T08:27:59.143Z,6.50
2019-02-28T08:30:33.842Z,6.50
2019-02-28T08:33:03.245Z,6.50
2019-02-28T08:35:34.937Z,6.50
2019-02-28T08:38:03.611Z,6.50
2019-02-28T08:40:33.109Z,6.50
2019-02-28T08:43:02.454Z,6.50
2019-02-28T08:45:33.459Z,6.60
2019-02-28T08:48:02.882Z,6.70
2019-02-28T08:50:32.242Z,6.70
2019-02-28T08:53:05.734Z,6.70
2019-02-28T08:55:38.293Z,6.70
2019-02-28T08:58:06.805Z,6.70
2019-02-28T09:00:37.727Z,6.70
2019-02-28T09:03:07.297Z,6.80
2019-02-28T09:05:36.630Z,6.80
2019-02-28T09:08:05.957Z,6.90
2019-02-28T09:10:37.275Z,7.00
2019-02-28T09:13:08.741Z,7.00
2019-02-28T09:15:37.373Z,7.00
2019-02-28T09:18:07.412Z,7.10
2019-02-28T09:20:36.770Z,7.10
2019-02-28T09:23:06.419Z,7.10
2019-02-28T09:25:35.803Z,7.10
2019-02-28T09:28:05.147Z,7.10
2019-02-28T09:30:42.159Z,7.20
2019-02-28T09:33:11.639Z,7.20
2019-02-28T09:35:45.234Z,7.30
2019-02-28T09:38:13.605Z,7.40
2019-02-28T09:40:43.070Z,7.30
2019-02-28T09:43:12.391Z,7.20
2019-02-28T09:45:41.722Z,7.20
2019-02-28T09:48:11.067Z,7.20
2019-02-28T09:50:40.391Z,7.20
2019-02-28T09:53:09.818Z,7.10
2019-02-28T09:55:39.861Z,7.10
2019-02-28T09:58:09.366Z,7.30
2019-02-28T10:00:38.773Z,7.30
2019-02-28T10:03:08.091Z,7.40
2019-02-28T10:05:38.826Z,7.40
2019-02-28T10:08:08.453Z,7.40
2019-02-28T10:10:37.783Z,7.50
2019-02-28T10:13:07.104Z,7.70
2019-02-28T10:15:38.606Z,7.90
2019-02-28T10:18:07.449Z,8.00
2019-02-28T10:20:39.187Z,8.00
2019-02-28T10:23:08.508Z,8.00
2019-02-28T10:25:43.341Z,7.90
2019-02-28T10:28:09.027Z,7.90
2019-02-28T10:30:39.272Z,7.80
2019-02-28T10:33:08.590Z,7.70
2019-02-28T10:35:37.919Z,7.80
2019-02-28T10:38:07.261Z,7.70
2019-02-28T10:40:36.652Z,7.80
2019-02-28T10:43:05.983Z,7.90
2019-02-28T10:45:38.331Z,7.80
2019-02-28T10:48:06.403Z,7.80
2019-02-28T10:50:37.578Z,7.90
2019-02-28T10:53:07.067Z,8.00
2019-02-28T10:55:36.570Z,8.10
2019-02-28T10:58:06.054Z,8.20
2019-02-28T11:00:39.564Z,8.20
2019-02-28T11:03:09.056Z,8.30
2019-02-28T11:05:40.736Z,8.20
2019-02-28T11:08:14.789Z,8.20
2019-02-28T11:10:46.530Z,8.20
2019-02-28T11:13:18.355Z,8.30
2019-02-28T11:15:49.333Z,8.30
2019-02-28T11:18:18.772Z,8.30
2019-02-28T11:20:48.092Z,8.30
2019-02-28T11:23:17.893Z,8.20
2019-02-28T11:25:47.390Z,8.20
2019-02-28T11:28:17.131Z,8.20
2019-02-28T11:30:47.748Z,8.10
2019-02-28T11:33:18.521Z,8.20
2019-02-28T11:35:48.012Z,8.30
2019-02-28T11:38:20.781Z,8.30
2019-02-28T11:40:57.128Z,8.20
2019-02-28T11:43:19.539Z,8.10
2019-02-28T11:45:49.200Z,8.10
2019-02-28T11:48:21.875Z,8.10
2019-02-28T11:50:51.302Z,8.10
2019-02-28T11:53:20.754Z,8.20
2019-02-28T11:55:53.282Z,8.20
2019-02-28T11:58:21.116Z,8.10
2019-02-28T12:00:50.711Z,8.10
2019-02-28T12:03:20.043Z,8.10
2019-02-28T12:05:50.543Z,8.10
2019-02-28T12:08:22.339Z,8.10
2019-02-28T12:10:51.424Z,8.10
2019-02-28T12:13:20.756Z,8.20
2019-02-28T12:15:50.100Z,8.30
2019-02-28T12:18:19.438Z,8.30
2019-02-28T12:20:48.772Z,8.30
2019-02-28T12:23:22.907Z,8.30
2019-02-28T12:25:49.136Z,8.20
2019-02-28T12:28:18.468Z,8.30
2019-02-28T12:30:47.873Z,8.30
2019-02-28T12:33:19.109Z,8.30
2019-02-28T12:35:48.235Z,8.20
2019-02-28T12:38:17.564Z,8.20
2019-02-28T12:40:49.293Z,8.20
2019-02-28T12:43:17.907Z,8.30
2019-02-28T12:45:47.634Z,8.30
2019-02-28T12:48:17.199Z,8.30
2019-02-28T12:50:46.511Z,8.30
2019-02-28T12:53:15.843Z,8.30
2019-02-28T12:55:45.165Z,8.30
2019-02-28T12:58:14.535Z,8.30
2019-02-28T13:00:45.800Z,8.30
2019-02-28T13:03:19.206Z,8.20
2019-02-28T13:05:49.317Z,8.30
2019-02-28T13:08:18.524Z,8.30
2019-02-28T13:10:48.023Z,8.30
2019-02-28T13:13:21.667Z,8.30
2019-02-28T13:15:49.275Z,8.40
2019-02-28T13:18:18.847Z,8.50
2019-02-28T13:20:48.251Z,8.50
2019-02-28T13:23:17.617Z,8.40
2019-02-28T13:25:47.172Z,8.40
2019-02-28T13:28:18.155Z,8.50
2019-02-28T13:30:50.515Z,8.40
2019-02-28T13:33:18.650Z,8.40
2019-02-28T13:35:47.987Z,8.30
2019-02-28T13:38:19.743Z,8.40
2019-02-28T13:40:49.424Z,8.40
2019-02-28T13:43:21.087Z,8.30
2019-02-28T13:45:50.966Z,8.30
2019-02-28T13:48:26.148Z,8.30
2019-02-28T13:50:51.984Z,8.40
2019-02-28T13:53:23.282Z,8.30
2019-02-28T13:55:53.036Z,8.20
2019-02-28T13:58:23.377Z,8.10
2019-02-28T14:00:52.709Z,8.10
2019-02-28T14:03:22.113Z,8.20
2019-02-28T14:05:51.640Z,8.10
2019-02-28T14:08:21.002Z,8.10
2019-02-28T14:10:51.075Z,8.10
2019-02-28T14:13:20.581Z,8.10
2019-02-28T14:15:52.489Z,8.00
2019-02-28T14:18:22.184Z,8.00
2019-02-28T14:20:51.708Z,8.10
2019-02-28T14:23:22.004Z,8.20
2019-02-28T14:25:51.399Z,8.20
2019-02-28T14:28:20.719Z,8.20
2019-02-28T14:30:50.053Z,8.20
2019-02-28T14:33:20.641Z,8.20
2019-02-28T14:35:50.255Z,8.30
2019-02-28T14:38:20.553Z,8.30
2019-02-28T14:40:52.790Z,8.20
2019-02-28T14:43:20.924Z,8.10
2019-02-28T14:45:50.257Z,8.10
2019-02-28T14:48:19.648Z,8.10
2019-02-28T14:50:50.644Z,8.00
2019-02-28T14:53:19.997Z,8.00
2019-02-28T14:55:49.336Z,8.00
2019-02-28T14:58:21.269Z,8.00
2019-02-28T15:00:49.944Z,8.00
2019-02-28T15:03:19.263Z,8.00
2019-02-28T15:05:48.611Z,7.90
2019-02-28T15:08:17.932Z,7.90
2019-02-28T15:10:47.263Z,7.80
2019-02-28T15:13:16.579Z,7.70
2019-02-28T15:15:45.912Z,7.70
2019-02-28T15:18:15.258Z,7.70
2019-02-28T15:20:44.576Z,7.70
2019-02-28T15:23:13.908Z,7.70
2019-02-28T15:25:43.366Z,7.70
2019-02-28T15:28:13.901Z,7.70
2019-02-28T15:30:43.857Z,7.60
2019-02-28T15:33:13.190Z,7.60
2019-02-28T15:35:42.525Z,7.60
2019-02-28T15:38:11.937Z,7.60
2019-02-28T15:40:43.878Z,7.50
2019-02-28T15:43:17.112Z,7.50
2019-02-28T15:45:44.295Z,7.50
2019-02-28T15:48:13.629Z,7.50
2019-02-28T15:50:42.948Z,7.50
2019-02-28T15:53:15.189Z,7.50
2019-02-28T15:55:43.302Z,7.50
2019-02-28T15:58:12.701Z,7.50
2019-02-28T16:00:42.047Z,7.50
2019-02-28T16:03:13.537Z,7.50
2019-02-28T16:05:43.982Z,7.40
2019-02-28T16:08:13.642Z,7.40
2019-02-28T16:10:52.870Z,7.40
2019-02-28T16:13:15.056Z,7.30
2019-02-28T16:15:46.339Z,7.30
2019-02-28T16:18:15.487Z,7.30
2019-02-28T16:20:45.940Z,7.30
2019-02-28T16:23:15.274Z,7.30
2019-02-28T16:25:46.948Z,7.20
2019-02-28T16:28:15.728Z,7.30
2019-02-28T16:30:45.228Z,7.30
2019-02-28T16:33:14.554Z,7.20
2019-02-28T16:35:46.803Z,7.20
2019-02-28T16:38:14.920Z,7.20
2019-02-28T16:40:44.240Z,7.20
2019-02-28T16:43:13.575Z,7.20
2019-02-28T16:45:47.472Z,7.20
2019-02-28T16:48:16.806Z,7.10
2019-02-28T16:50:46.139Z,7.10
2019-02-28T16:53:16.477Z,7.00
2019-02-28T16:55:45.969Z,7.00
2019-02-28T16:58:15.306Z,7.00
2019-02-28T17:00:46.367Z,7.00
2019-02-28T17:03:16.768Z,7.00
2019-02-28T17:05:46.095Z,7.00
2019-02-28T17:08:18.588Z,7.00
2019-02-28T17:10:46.793Z,6.90
2019-02-28T17:13:20.804Z,6.90
2019-02-28T17:16:02.382Z,6.90
2019-02-28T17:18:36.100Z,6.90
2019-02-28T17:21:05.591Z,6.90
2019-02-28T17:23:37.093Z,6.90
2019-02-28T17:26:05.944Z,6.90
2019-02-28T17:28:49.757Z,6.90
2019-02-28T17:31:21.554Z,6.90
2019-02-28T17:33:51.260Z,6.90
2019-02-28T17:36:20.683Z,6.90
2019-02-28T17:38:50.088Z,6.90
2019-02-28T17:41:19.420Z,6.90
2019-02-28T17:44:11.949Z,6.90
2019-02-28T17:46:41.339Z,6.90
2019-02-28T17:49:35.975Z,6.90
2019-02-28T17:52:08.619Z,6.90
2019-02-28T17:54:54.310Z,6.90
2019-02-28T17:57:32.966Z,6.90
2019-02-28T18:00:29.924Z,6.90
2019-02-28T18:03:12.968Z,6.90
2019-02-28T18:05:47.528Z,7.00
2019-02-28T18:08:32.240Z,6.90
2019-02-28T18:11:17.495Z,6.90
2019-02-28T18:14:06.451Z,6.90
2019-02-28T18:17:02.452Z,6.90
2019-02-28T18:19:41.646Z,6.90
2019-02-28T18:22:28.904Z,6.90
2019-02-28T18:25:17.396Z,6.80
2019-02-28T18:27:50.701Z,6.90
2019-02-28T18:30:48.427Z,6.90
2019-02-28T18:33:19.460Z,6.90
2019-02-28T18:35:49.089Z,6.90
2019-02-28T18:38:18.497Z,6.90
2019-02-28T18:40:47.843Z,6.90
2019-02-28T18:43:17.167Z,6.90
2019-02-28T18:45:46.515Z,6.90
2019-02-28T18:48:17.840Z,6.90
2019-02-28T18:50:46.937Z,7.00
2019-02-28T18:53:16.320Z,6.90
2019-02-28T18:55:45.647Z,6.90
2019-02-28T18:58:14.986Z,7.00
2019-02-28T19:00:44.359Z,6.90
2019-02-28T19:03:13.703Z,7.00
2019-02-28T19:05:43.025Z,7.00
2019-02-28T19:08:12.361Z,6.90
2019-02-28T19:10:41.846Z,7.00
2019-02-28T19:13:11.181Z,7.00
2019-02-28T19:15:41.639Z,6.90
2019-02-28T19:18:11.040Z,7.00
2019-02-28T19:20:40.375Z,7.00
2019-02-28T19:23:09.796Z,6.90
2019-02-28T19:25:39.114Z,7.00
2019-02-28T19:28:08.440Z,6.80
2019-02-28T19:30:37.761Z,6.80
2019-02-28T19:33:07.103Z,6.80
2019-02-28T19:35:36.488Z,6.70
2019-02-28T19:38:06.516Z,6.60
2019-02-28T19:40:35.848Z,6.70
2019-02-28T19:43:06.260Z,6.60
2019-02-28T19:45:39.063Z,6.60
2019-02-28T19:48:09.432Z,6.50
2019-02-28T19:50:38.756Z,6.40
2019-02-28T19:53:08.447Z,6.30
2019-02-28T19:55:37.769Z,6.30
2019-02-28T19:58:07.107Z,6.20
2019-02-28T20:00:36.424Z,6.30
2019-02-28T20:03:05.767Z,6.20
2019-02-28T20:05:35.090Z,6.20
2019-02-28T20:08:04.424Z,6.10
2019-02-28T20:10:33.829Z,6.00
2019-02-28T20:13:04.232Z,6.00
2019-02-28T20:15:34.923Z,6.10
2019-02-28T20:18:04.256Z,6.10
2019-02-28T20:20:33.580Z,6.10
2019-02-28T20:23:02.911Z,6.00
2019-02-28T20:25:34.206Z,6.00
2019-02-28T20:28:03.280Z,6.00
2019-02-28T20:30:32.875Z,6.00
2019-02-28T20:33:02.198Z,6.00
2019-02-28T20:35:31.535Z,6.10
2019-02-28T20:38:00.962Z,6.10
2019-02-28T20:40:37.515Z,6.10
2019-02-28T20:43:06.827Z,6.00
2019-02-28T20:45:36.260Z,6.00
2019-02-28T20:48:05.584Z,6.00
2019-02-28T20:50:52.032Z,5.90
2019-02-28T20:53:21.426Z,5.90
2019-02-28T20:55:50.753Z,6.00
2019-02-28T20:58:20.071Z,6.00
2019-02-28T21:00:49.572Z,6.00
2019-02-28T21:03:18.912Z,6.10
2019-02-28T21:05:48.244Z,6.10
2019-02-28T21:08:17.633Z,6.10
2019-02-28T21:10:46.965Z,6.10
2019-02-28T21:13:16.290Z,6.00
2019-02-28T21:15:45.753Z,6.10
2019-02-28T21:18:15.080Z,6.20
2019-02-28T21:20:44.409Z,6.20
2019-02-28T21:23:13.905Z,6.20
2019-02-28T21:25:43.236Z,6.10
2019-02-28T21:28:12.566Z,6.00
2019-02-28T21:30:41.972Z,6.00
2019-02-28T21:33:11.299Z,6.10
2019-02-28T21:35:40.816Z,6.10
2019-02-28T21:38:10.140Z,6.10
2019-02-28T21:40:39.489Z,6.20
2019-02-28T21:43:08.852Z,6.20
2019-02-28T21:45:38.220Z,6.30
2019-02-28T21:48:07.552Z,6.30
2019-02-28T21:50:36.879Z,6.30
2019-02-28T21:53:06.208Z,6.40
2019-02-28T21:55:35.544Z,6.30
2019-02-28T21:58:04.962Z,6.30
2019-02-28T22:00:34.301Z,6.30
2019-02-28T22:03:03.695Z,6.40
2019-02-28T22:05:33.027Z,6.50
2019-02-28T22:08:02.357Z,6.50
2019-02-28T22:10:31.690Z,6.50
2019-02-28T22:13:01.063Z,6.60
2019-02-28T22:15:30.401Z,6.50
2019-02-28T22:17:59.739Z,6.50
2019-02-28T22:20:29.063Z,6.50
2019-02-28T22:22:58.392Z,6.50
2019-02-28T22:25:27.834Z,6.50
2019-02-28T22:27:57.219Z,6.60
2019-02-28T22:30:43.493Z,6.60
2019-02-28T22:33:16.991Z,6.50
2019-02-28T22:36:00.289Z,6.40
2019-02-28T22:38:29.703Z,6.40
2019-02-28T22:40:59.032Z,6.40
2019-02-28T22:43:28.468Z,6.30
2019-02-28T22:45:57.840Z,6.20
2019-02-28T22:48:27.222Z,6.20
2019-02-28T22:50:56.561Z,6.10
2019-02-28T22:53:25.944Z,6.10
2019-02-28T22:55:55.278Z,6.20
2019-02-28T22:58:24.600Z,6.30
2019-02-28T23:01:04.417Z,6.30
2019-02-28T23:03:35.655Z,6.30
2019-02-28T23:06:05.619Z,6.30
2019-02-28T23:08:35.019Z,6.30
2019-02-28T23:11:05.584Z,6.40
2019-02-28T23:13:34.911Z,6.40
2019-02-28T23:16:07.043Z,6.50
2019-02-28T23:18:36.375Z,6.50
2019-02-28T23:21:05.703Z,6.40
2019-02-28T23:23:35.031Z,6.50
2019-02-28T23:26:09.211Z,6.40
2019-02-28T23:28:44.420Z,6.50
2019-02-28T23:31:45.329Z,6.50
2019-02-28T23:34:27.128Z,6.50
2019-02-28T23:36:56.468Z,6.30
2019-02-28T23:39:25.780Z,6.20
2019-02-28T23:41:55.121Z,6.30
2019-02-28T23:44:24.441Z,6.20
2019-02-28T23:46:54.739Z,6.30
2019-02-28T23:49:24.088Z,6.20
2019-02-28T23:51:53.503Z,6.20
2019-02-28T23:54:22.824Z,6.20
2019-02-28T23:56:52.152Z,6.20
2019-02-28T23:59:21.491Z,6.10
